createdAt,value
2019-03-23T00:02:15.503Z,24.63
2019-03-23T00:04:44.116Z,18.33
2019-03-23T00:07:12.791Z,20.03
2019-03-23T00:12:15.864Z,20.60
2019-03-23T00:14:44.575Z,16.50
2019-03-23T00:17:32.449Z,15.27
2019-03-23T00:20:01.078Z,15.97
2019-03-23T00:22:29.659Z,16.67
2019-03-23T00:24:58.344Z,16.53
2019-03-23T00:27:27.045Z,17.03
2019-03-23T00:29:55.704Z,20.13
2019-03-23T00:32:36.753Z,14.83
2019-03-23T00:35:45.171Z,19.33
2019-03-23T00:38:13.857Z,17.47
2019-03-23T00:40:42.480Z,15.83
2019-03-23T00:43:30.351Z,13.00
2019-03-23T00:45:59.046Z,15.20
2019-03-23T00:48:27.819Z,16.90
2019-03-23T00:50:56.427Z,16.63
2019-03-23T00:53:25.006Z,18.47
2019-03-23T00:55:53.689Z,16.10
2019-03-23T00:58:22.334Z,15.00
2019-03-23T01:01:10.767Z,14.87
2019-03-23T01:03:39.473Z,21.17
2019-03-23T01:06:27.300Z,12.80
2019-03-23T01:08:55.986Z,15.00
2019-03-23T01:11:43.823Z,11.63
2019-03-23T01:14:31.711Z,14.93
2019-03-23T01:17:00.275Z,15.37
2019-03-23T01:19:28.981Z,14.37
2019-03-23T01:21:57.834Z,16.73
2019-03-23T01:24:26.331Z,14.13
2019-03-23T01:29:49.567Z,15.87
2019-03-23T01:32:18.187Z,12.60
2019-03-23T01:34:46.879Z,16.67
2019-03-23T01:37:34.703Z,17.17
2019-03-23T01:43:16.986Z,15.83
2019-03-23T01:46:04.930Z,16.77
2019-03-23T01:48:33.695Z,12.93
2019-03-23T01:51:02.449Z,17.13
2019-03-23T01:53:50.316Z,18.03
2019-03-23T01:56:38.189Z,20.20
2019-03-23T01:59:26.064Z,16.43
2019-03-23T02:01:54.688Z,27.43
2019-03-23T02:04:42.477Z,20.27
2019-03-23T02:07:30.327Z,20.70
2019-03-23T02:10:18.176Z,22.33
2019-03-23T02:12:46.828Z,18.57
2019-03-23T02:15:15.568Z,20.33
2019-03-23T02:17:44.261Z,20.57
2019-03-23T02:20:52.732Z,20.07
2019-03-23T02:23:21.417Z,20.30
2019-03-23T02:26:09.112Z,20.23
2019-03-23T02:31:31.258Z,28.10
2019-03-23T02:33:59.862Z,22.93
2019-03-23T02:36:47.745Z,21.30
2019-03-23T02:39:16.312Z,23.00
2019-03-23T02:41:45.065Z,26.10
2019-03-23T02:44:33.003Z,22.83
2019-03-23T02:49:42.514Z,24.53
2019-03-23T02:52:30.417Z,25.60
2019-03-23T02:54:59.099Z,21.57
2019-03-23T02:57:27.949Z,17.73
2019-03-23T02:59:56.604Z,19.53
2019-03-23T03:02:25.311Z,20.40
2019-03-23T03:05:13.209Z,25.13
2019-03-23T03:07:43.524Z,21.97
2019-03-23T03:10:52.179Z,24.53
2019-03-23T03:13:35.181Z,20.37
2019-03-23T03:16:10.771Z,20.97
2019-03-23T03:18:39.474Z,21.90
2019-03-23T03:21:08.049Z,27.97
2019-03-23T03:24:16.533Z,29.67
2019-03-23T03:26:45.182Z,23.97
2019-03-23T03:29:33.081Z,22.67
2019-03-23T03:32:01.718Z,22.17
2019-03-23T03:34:30.395Z,19.53
2019-03-23T03:37:18.442Z,22.70
2019-03-23T03:40:07.379Z,23.90
2019-03-23T03:46:09.204Z,22.90
2019-03-23T03:48:38.661Z,22.70
2019-03-23T03:51:26.746Z,23.37
2019-03-23T03:54:14.651Z,26.53
2019-03-23T03:59:32.269Z,24.10
2019-03-23T04:04:36.930Z,23.93
2019-03-23T04:07:05.860Z,19.23
2019-03-23T04:12:29.519Z,22.53
2019-03-23T04:14:58.144Z,25.60
2019-03-23T04:17:26.832Z,26.97
2019-03-23T04:19:55.402Z,26.60
2019-03-23T04:22:24.047Z,26.33
2019-03-23T04:25:12.282Z,33.43
2019-03-23T04:27:40.955Z,20.03
2019-03-23T04:30:49.388Z,25.37
2019-03-23T04:33:37.249Z,23.27
2019-03-23T04:36:25.097Z,23.43
2019-03-23T04:39:12.931Z,23.87
2019-03-23T04:41:41.619Z,26.97
2019-03-23T04:44:10.328Z,23.43
2019-03-23T04:46:39.483Z,23.37
2019-03-23T04:49:08.165Z,26.80
2019-03-23T04:51:56.138Z,24.17
2019-03-23T04:54:44.120Z,25.03
2019-03-23T04:57:12.813Z,23.13
2019-03-23T04:59:43.166Z,30.47
2019-03-23T05:05:47.833Z,25.20
2019-03-23T05:08:16.566Z,22.03
2019-03-23T05:13:40.405Z,26.50
2019-03-23T05:16:28.278Z,21.43
2019-03-23T05:18:56.815Z,23.63
2019-03-23T05:21:44.650Z,24.17
2019-03-23T05:24:32.441Z,22.53
2019-03-23T05:27:01.182Z,21.73
2019-03-23T05:29:29.838Z,24.90
2019-03-23T05:34:33.376Z,26.67
2019-03-23T05:37:02.214Z,23.80
2019-03-23T05:40:10.812Z,24.30
2019-03-23T05:42:58.640Z,25.33
2019-03-23T05:45:46.516Z,20.97
2019-03-23T05:48:15.106Z,26.33
2019-03-23T05:50:43.861Z,24.00
2019-03-23T05:53:31.673Z,31.50
2019-03-23T05:56:00.385Z,25.80
2019-03-23T05:58:48.101Z,23.10
2019-03-23T06:01:36.049Z,22.90
2019-03-23T06:06:59.781Z,24.03
2019-03-23T06:09:28.408Z,26.43
2019-03-23T06:11:56.976Z,26.50
2019-03-23T06:14:25.595Z,21.47
2019-03-23T06:17:13.502Z,26.43
2019-03-23T06:19:42.156Z,27.17
2019-03-23T06:22:10.807Z,25.80
2019-03-23T06:28:47.027Z,21.87
2019-03-23T06:31:15.713Z,19.33
2019-03-23T06:34:03.540Z,22.70
2019-03-23T06:36:32.115Z,23.43
2019-03-23T06:39:19.898Z,21.93
2019-03-23T06:41:48.561Z,21.40
2019-03-23T06:44:18.415Z,22.70
2019-03-23T06:46:47.488Z,24.07
2019-03-23T06:49:36.013Z,20.67
2019-03-23T06:52:23.929Z,19.07
2019-03-23T06:54:52.547Z,20.43
2019-03-23T06:57:21.202Z,21.47
2019-03-23T07:00:08.946Z,22.40
2019-03-23T07:02:37.593Z,23.83
2019-03-23T07:05:46.072Z,22.07
2019-03-23T07:08:14.647Z,18.00
2019-03-23T07:10:43.361Z,19.57
2019-03-23T07:13:11.927Z,21.30
2019-03-23T07:15:59.775Z,21.17
2019-03-23T07:18:47.664Z,21.80
2019-03-23T07:21:35.544Z,19.87
2019-03-23T07:24:04.382Z,19.73
2019-03-23T07:26:32.986Z,19.90
2019-03-23T07:29:01.565Z,21.43
2019-03-23T07:31:30.202Z,19.50
2019-03-23T07:34:17.946Z,22.10
2019-03-23T07:36:46.633Z,17.70
2019-03-23T07:39:15.211Z,18.23
2019-03-23T07:42:03.155Z,18.13
2019-03-23T07:44:50.991Z,21.43
2019-03-23T07:47:19.670Z,21.33
2019-03-23T07:49:48.326Z,19.33
2019-03-23T07:52:16.953Z,21.47
2019-03-23T07:54:45.454Z,24.63
2019-03-23T07:57:33.339Z,23.57
2019-03-23T08:00:21.176Z,21.67
2019-03-23T08:03:09.050Z,24.03
2019-03-23T08:05:37.729Z,26.50
2019-03-23T08:08:06.415Z,22.67
2019-03-23T08:11:14.913Z,27.63
2019-03-23T08:14:23.333Z,22.97
2019-03-23T08:16:51.953Z,18.77
2019-03-23T08:19:20.482Z,19.73
2019-03-23T08:22:08.354Z,32.70
2019-03-23T08:24:56.065Z,25.67
2019-03-23T08:27:24.765Z,22.00
2019-03-23T08:29:53.351Z,26.47
2019-03-23T08:32:41.096Z,25.37
2019-03-23T08:35:09.826Z,25.90
2019-03-23T08:37:38.408Z,25.37
2019-03-23T08:43:00.772Z,25.90
2019-03-23T08:45:29.431Z,23.33
2019-03-23T08:47:58.120Z,22.40
2019-03-23T08:53:14.319Z,22.77
2019-03-23T08:55:42.877Z,24.10
2019-03-23T08:58:11.571Z,24.27
2019-03-23T09:00:40.235Z,23.17
2019-03-23T09:03:28.096Z,25.47
2019-03-23T09:06:15.982Z,27.97
2019-03-23T09:12:12.266Z,28.37
2019-03-23T09:14:40.774Z,25.53
2019-03-23T09:17:28.574Z,28.23
2019-03-23T09:20:16.407Z,25.53
2019-03-23T09:22:44.954Z,25.20
2019-03-23T09:25:13.603Z,24.20
2019-03-23T09:27:42.288Z,28.10
2019-03-23T09:30:50.778Z,26.30
2019-03-23T09:33:38.658Z,20.20
2019-03-23T09:36:26.601Z,28.93
2019-03-23T09:38:55.288Z,31.40
2019-03-23T09:41:43.156Z,28.07
2019-03-23T09:44:11.868Z,19.53
2019-03-23T09:46:40.511Z,30.57
2019-03-23T09:49:09.161Z,28.60
2019-03-23T09:51:57.115Z,28.10
2019-03-23T09:54:25.742Z,29.80
2019-03-23T09:57:13.581Z,25.80
2019-03-23T10:00:01.469Z,26.27
2019-03-23T10:02:49.211Z,26.63
2019-03-23T10:05:37.059Z,26.17
2019-03-23T10:08:24.878Z,25.27
2019-03-23T10:11:12.766Z,27.77
2019-03-23T10:14:00.470Z,27.53
2019-03-23T10:16:29.180Z,30.03
2019-03-23T10:19:17.041Z,23.17
2019-03-23T10:22:04.917Z,23.43
2019-03-23T10:24:52.725Z,29.37
2019-03-23T10:27:21.355Z,30.37
2019-03-23T10:30:09.188Z,28.13
2019-03-23T10:32:37.765Z,30.00
2019-03-23T10:35:46.175Z,28.33
2019-03-23T10:38:33.957Z,25.60
2019-03-23T10:41:21.798Z,28.10
2019-03-23T10:44:09.754Z,27.30
2019-03-23T10:46:38.515Z,27.17
2019-03-23T10:49:26.398Z,29.17
2019-03-23T10:52:14.217Z,24.83
2019-03-23T10:54:42.807Z,28.50
2019-03-23T10:57:30.698Z,32.17
2019-03-23T11:00:18.515Z,30.23
2019-03-23T11:03:06.257Z,26.10
2019-03-23T11:05:54.147Z,24.60
2019-03-23T11:08:22.831Z,23.70
2019-03-23T11:11:10.713Z,28.73
2019-03-23T11:13:58.547Z,27.13
2019-03-23T11:16:46.439Z,27.20
2019-03-23T11:19:14.945Z,25.73
2019-03-23T11:22:02.829Z,23.83
2019-03-23T11:24:50.664Z,25.77
2019-03-23T11:27:38.561Z,25.10
2019-03-23T11:30:46.983Z,24.93
2019-03-23T11:33:34.849Z,25.80
2019-03-23T11:36:22.692Z,26.43
2019-03-23T11:39:10.575Z,25.20
2019-03-23T11:41:58.407Z,27.07
2019-03-23T11:44:46.342Z,23.50
2019-03-23T11:47:14.948Z,23.43
2019-03-23T11:50:02.839Z,26.07
2019-03-23T11:52:50.731Z,23.93
2019-03-23T11:55:38.559Z,27.83
2019-03-23T11:58:07.247Z,24.50
2019-03-23T12:00:35.900Z,24.30
2019-03-23T12:03:04.608Z,21.80
2019-03-23T12:05:33.261Z,25.00
2019-03-23T12:08:21.140Z,23.17
2019-03-23T12:11:09.009Z,23.93
2019-03-23T12:13:56.893Z,25.87
2019-03-23T12:16:44.755Z,27.33
2019-03-23T12:19:32.634Z,26.73
2019-03-23T12:22:20.507Z,27.50
2019-03-23T12:25:08.321Z,25.30
2019-03-23T12:27:36.951Z,27.00
2019-03-23T12:30:45.417Z,26.90
2019-03-23T12:33:14.038Z,26.53
2019-03-23T12:36:01.926Z,27.73
2019-03-23T12:38:49.761Z,29.73
2019-03-23T12:41:37.570Z,27.47
2019-03-23T12:44:06.202Z,24.70
2019-03-23T12:46:54.082Z,24.97
2019-03-23T12:49:41.921Z,21.47
2019-03-23T12:52:29.817Z,23.63
2019-03-23T12:55:17.580Z,23.53
2019-03-23T12:58:05.408Z,22.70
2019-03-23T13:00:53.282Z,24.53
2019-03-23T13:03:21.928Z,23.87
2019-03-23T13:05:50.617Z,23.87
2019-03-23T13:08:38.502Z,25.10
2019-03-23T13:11:07.196Z,25.70
2019-03-23T13:13:55.076Z,28.40
2019-03-23T13:16:42.851Z,30.67
2019-03-23T13:19:30.588Z,29.83
2019-03-23T13:21:59.271Z,21.77
2019-03-23T13:24:47.155Z,24.20
2019-03-23T13:27:35.043Z,24.10
2019-03-23T13:30:43.516Z,24.03
2019-03-23T13:33:31.279Z,26.20
2019-03-23T13:36:19.156Z,23.47
2019-03-23T13:39:07.032Z,24.50
2019-03-23T13:41:54.902Z,25.90
2019-03-23T13:44:42.744Z,23.33
2019-03-23T13:47:30.509Z,20.57
2019-03-23T13:50:18.266Z,23.20
2019-03-23T13:53:06.167Z,22.83
2019-03-23T13:56:14.646Z,24.13
2019-03-23T13:59:02.599Z,26.90
2019-03-23T14:01:50.478Z,23.17
2019-03-23T14:04:19.075Z,21.53
2019-03-23T14:06:47.700Z,28.63
2019-03-23T14:09:35.551Z,29.37
2019-03-23T14:12:04.173Z,26.50
2019-03-23T14:14:52.011Z,25.23
2019-03-23T14:17:39.840Z,20.60
2019-03-23T14:23:22.315Z,22.97
2019-03-23T14:26:10.148Z,22.07
2019-03-23T14:28:58.022Z,26.20
2019-03-23T14:31:45.772Z,28.07
2019-03-23T14:34:14.286Z,24.23
2019-03-23T14:37:02.232Z,23.60
2019-03-23T14:39:31.215Z,25.77
2019-03-23T14:42:05.135Z,25.03
2019-03-23T14:44:31.644Z,26.03
2019-03-23T14:47:00.334Z,31.20
2019-03-23T14:49:48.250Z,25.50
2019-03-23T14:52:36.124Z,24.03
2019-03-23T14:55:44.564Z,26.60
2019-03-23T14:58:13.167Z,29.37
2019-03-23T15:01:01.044Z,27.40
2019-03-23T15:03:29.556Z,27.23
2019-03-23T15:06:17.320Z,28.67
2019-03-23T15:09:05.034Z,31.47
2019-03-23T15:11:52.905Z,34.17
2019-03-23T15:14:40.752Z,27.43
2019-03-23T15:17:28.506Z,27.50
2019-03-23T15:20:16.335Z,28.30
2019-03-23T15:22:45.031Z,25.20
2019-03-23T15:25:13.728Z,26.57
2019-03-23T15:28:01.621Z,27.30
2019-03-23T15:30:50.870Z,38.63
2019-03-23T15:33:20.019Z,26.40
2019-03-23T15:36:07.788Z,29.90
2019-03-23T15:39:16.275Z,34.77
2019-03-23T15:41:44.858Z,37.43
2019-03-23T15:44:32.606Z,32.90
2019-03-23T15:47:20.479Z,29.10
2019-03-23T15:50:08.317Z,28.97
2019-03-23T15:52:56.198Z,31.13
2019-03-23T15:55:44.038Z,32.57
2019-03-23T15:58:31.904Z,43.80
2019-03-23T16:01:19.666Z,29.67
2019-03-23T16:04:07.422Z,29.20
2019-03-23T16:06:56.813Z,28.00
2019-03-23T16:09:44.720Z,28.30
2019-03-23T16:12:34.992Z,25.77
2019-03-23T16:17:55.942Z,23.37
2019-03-23T16:20:43.844Z,28.10
2019-03-23T16:23:31.617Z,35.20
2019-03-23T16:26:19.480Z,27.10
2019-03-23T16:32:15.773Z,26.77
2019-03-23T16:35:03.571Z,24.47
2019-03-23T16:37:51.393Z,27.10
2019-03-23T16:40:19.906Z,23.93
2019-03-23T16:42:48.515Z,29.10
2019-03-23T16:45:17.171Z,28.53
2019-03-23T16:47:45.759Z,28.27
2019-03-23T16:50:14.399Z,32.57
2019-03-23T16:52:42.987Z,27.97
2019-03-23T16:55:11.736Z,27.20
2019-03-23T16:57:40.378Z,29.47
2019-03-23T17:00:47.522Z,23.43
2019-03-23T17:03:16.117Z,21.17
2019-03-23T17:06:04.069Z,32.27
2019-03-23T17:08:51.880Z,30.03
2019-03-23T17:11:39.691Z,29.33
2019-03-23T17:14:08.267Z,30.50
2019-03-23T17:16:36.984Z,27.77
2019-03-23T17:19:24.866Z,28.20
2019-03-23T17:22:12.754Z,31.60
2019-03-23T17:24:41.271Z,34.73
2019-03-23T17:27:29.166Z,30.03
2019-03-23T17:30:16.869Z,25.80
2019-03-23T17:33:04.744Z,26.27
2019-03-23T17:35:52.547Z,29.80
2019-03-23T17:38:40.332Z,25.53
2019-03-23T17:41:28.202Z,25.90
2019-03-23T17:44:16.056Z,25.30
2019-03-23T17:47:04.294Z,29.50
2019-03-23T17:49:52.146Z,33.80
2019-03-23T17:52:20.908Z,37.23
2019-03-23T17:55:08.751Z,29.47
2019-03-23T17:57:56.649Z,25.03
2019-03-23T18:00:25.481Z,29.57
2019-03-23T18:03:13.368Z,27.60
2019-03-23T18:06:01.238Z,32.53
2019-03-23T18:08:49.057Z,31.67
2019-03-23T18:11:36.902Z,29.40
2019-03-23T18:14:45.352Z,37.17
2019-03-23T18:17:33.123Z,28.90
2019-03-23T18:20:20.993Z,25.07
2019-03-23T18:23:08.977Z,28.83
2019-03-23T18:25:56.819Z,28.73
2019-03-23T18:28:44.707Z,29.63
2019-03-23T18:31:32.650Z,27.53
2019-03-23T18:34:01.538Z,29.50
2019-03-23T18:36:30.402Z,30.70
2019-03-23T18:39:18.390Z,32.33
2019-03-23T18:42:06.228Z,25.63
2019-03-23T18:44:54.318Z,29.13
2019-03-23T18:47:42.049Z,28.17
2019-03-23T18:50:29.946Z,30.30
2019-03-23T18:52:58.572Z,25.77
2019-03-23T18:55:27.206Z,23.83
2019-03-23T18:57:57.776Z,23.43
2019-03-23T19:00:45.609Z,24.63
2019-03-23T19:03:54.071Z,20.37
2019-03-23T19:06:22.763Z,23.17
2019-03-23T19:08:51.393Z,19.73
2019-03-23T19:11:20.129Z,22.93
2019-03-23T19:13:48.759Z,21.00
2019-03-23T19:16:17.451Z,20.43
2019-03-23T19:19:05.338Z,24.60
2019-03-23T19:21:53.150Z,28.27
2019-03-23T19:24:40.988Z,27.77
2019-03-23T19:27:28.912Z,25.60
2019-03-23T19:30:16.798Z,23.67
2019-03-23T19:33:06.289Z,25.60
2019-03-23T19:35:35.104Z,30.97
2019-03-23T19:38:22.989Z,25.17
2019-03-23T19:40:59.136Z,21.67
2019-03-23T19:43:49.734Z,25.60
2019-03-23T19:46:36.508Z,21.87
2019-03-23T19:49:24.344Z,25.47
2019-03-23T19:51:52.980Z,27.13
2019-03-23T19:54:21.677Z,24.37
2019-03-23T19:57:09.518Z,29.13
2019-03-23T19:59:57.312Z,22.57
2019-03-23T20:02:25.986Z,17.73
2019-03-23T20:05:14.380Z,24.87
2019-03-23T20:08:02.187Z,22.27
2019-03-23T20:10:49.998Z,23.83
2019-03-23T20:13:37.900Z,20.83
2019-03-23T20:16:06.552Z,22.33
2019-03-23T20:18:35.246Z,21.53
2019-03-23T20:21:23.229Z,23.10
2019-03-23T20:24:11.099Z,23.10
2019-03-23T20:26:58.981Z,24.03
2019-03-23T20:29:27.675Z,22.90
2019-03-23T20:31:56.258Z,22.70
2019-03-23T20:34:44.072Z,22.63
2019-03-23T20:37:31.855Z,18.10
2019-03-23T20:42:34.262Z,23.27
2019-03-23T20:45:22.165Z,19.23
2019-03-23T20:47:50.829Z,20.40
2019-03-23T20:50:38.696Z,18.80
2019-03-23T20:53:07.335Z,21.13
2019-03-23T20:55:35.970Z,21.80
2019-03-23T20:58:23.785Z,27.90
2019-03-23T21:00:52.394Z,20.13
2019-03-23T21:03:21.093Z,23.13
2019-03-23T21:06:08.883Z,20.60
2019-03-23T21:08:37.531Z,22.90
2019-03-23T21:11:25.492Z,22.10
2019-03-23T21:13:54.067Z,18.73
2019-03-23T21:16:41.866Z,20.57
2019-03-23T21:19:10.426Z,21.40
2019-03-23T21:21:58.137Z,23.03
2019-03-23T21:24:46.147Z,25.37
2019-03-23T21:27:34.072Z,28.13
2019-03-23T21:30:21.946Z,26.50
2019-03-23T21:33:09.893Z,19.83
2019-03-23T21:35:38.518Z,18.97
2019-03-23T21:38:26.325Z,20.87
2019-03-23T21:40:54.967Z,23.60
2019-03-23T21:43:42.839Z,21.17
2019-03-23T21:48:59.170Z,18.90
2019-03-23T21:51:27.760Z,22.43
2019-03-23T21:53:56.520Z,26.77
2019-03-23T21:56:44.437Z,25.83
2019-03-23T21:59:13.076Z,22.90
2019-03-23T22:02:02.065Z,25.47
2019-03-23T22:04:50.024Z,21.03
2019-03-23T22:07:18.682Z,25.37
2019-03-23T22:15:47.307Z,23.83
2019-03-23T22:21:25.393Z,21.30
2019-03-23T22:23:55.613Z,25.23
2019-03-23T22:26:24.152Z,27.50
2019-03-23T22:29:12.173Z,23.43
2019-03-23T22:31:40.931Z,22.53
2019-03-23T22:34:28.813Z,23.67
2019-03-23T22:40:24.941Z,21.67
2019-03-23T22:42:53.514Z,20.30
2019-03-23T22:45:22.181Z,21.67
2019-03-23T22:47:50.778Z,22.83
2019-03-23T22:50:39.087Z,24.70
2019-03-23T22:53:07.732Z,27.17
2019-03-23T22:55:36.315Z,27.27
2019-03-23T22:58:04.927Z,29.83
2019-03-23T23:00:53.427Z,24.57
2019-03-23T23:03:43.013Z,33.70
2019-03-23T23:06:31.349Z,21.83
2019-03-23T23:09:19.440Z,28.47
2019-03-23T23:11:48.082Z,25.90
2019-03-23T23:17:12.348Z,24.73
2019-03-23T23:19:43.142Z,27.30
2019-03-23T23:22:11.845Z,28.27
2019-03-23T23:24:40.478Z,28.90
2019-03-23T23:27:29.043Z,27.10
2019-03-23T23:30:19.003Z,27.97
2019-03-23T23:32:49.355Z,18.83
2019-03-23T23:35:18.061Z,25.87
2019-03-23T23:37:46.706Z,25.97
2019-03-23T23:43:09.619Z,33.90
2019-03-23T23:45:57.531Z,29.17
2019-03-23T23:48:51.196Z,24.50
2019-03-23T23:51:15.711Z,30.57
2019-03-23T23:53:44.752Z,25.73
2019-03-23T23:56:13.924Z,23.73
2019-03-23T23:58:42.708Z,35.27
